Data for 02/11/2016

Time Sea-Level Adjusted Pressure Absolute Pressure Temperature Relative Humidity Dew Point   
(mb) (inHg) (mb) (inHg) (C) (F) (%) (C) (F)
00:05 1023 30.21 852 25.16 4.5 40.1 52 -4.6 23.7
00:10 1023 30.21 852 25.16 4.6 40.3 50 -4.9 23.2
00:15 1023 30.21 852 25.16 4.7 40.5 51 -4.5 23.9
00:20 1023 30.21 852 25.16 4.7 40.4 52 -4.4 24.1
00:25 1023 30.21 852 25.16 4.6 40.3 48 -5.4 22.3
00:30 1023 30.21 852 25.16 5 40.9 47 -5.4 22.3
00:35 1023 30.21 852 25.16 5.1 41.2 49 -4.9 23.2
00:40 1023 30.21 852 25.16 5 41 48 -5.1 22.9
00:45 1023 30.21 852 25.16 5.1 41.2 47 -5.1 22.8
00:50 1023 30.21 852 25.16 5.2 41.4 48 -4.9 23.2
00:55 1023 30.21 852 25.16 5.2 41.3 50 -4.5 23.9
01:00 1023 30.21 852 25.16 5 41.1 51 -4.4 24.1
01:05 1023 30.21 852 25.16 5 41 49 -4.7 23.5
01:10 1023 30.21 852 25.16 5 41 50 -4.6 23.8
01:15 1023 30.21 852 25.16 4.9 40.9 50 -4.6 23.6
01:20 1023 30.21 852 25.16 4.9 40.8 48 -5.1 22.7
01:25 1023 30.21 852 25.16 4.8 40.7 54 -3.6 25.5
01:30 1023 30.21 852 25.16 4.4 39.9 56 -3.7 25.3
01:35 1023 30.21 852 25.16 4.1 39.4 55 -4.1 24.7
01:40 1023 30.21 852 25.16 4.2 39.5 53 -4.6 23.7
01:45 1023 30.21 852 25.16 4.3 39.8 53 -4.5 23.9
01:50 1023 30.21 852 25.16 4.3 39.8 52 -4.8 23.4
01:55 1023 30.21 852 25.16 4.5 40.1 52 -4.5 23.8
02:00 1023 30.21 852 25.16 4.6 40.3 50 -4.9 23.1
02:05 1023 30.21 852 25.16 4.8 40.7 48 -5.2 22.7
02:10 1023 30.21 852 25.16 5 41.1 48 -5 22.9
02:15 1023 30.21 852 25.16 5 41 46 -5.5 22.1
02:20 1023 30.21 852 25.16 5.3 41.6 46 -5.4 22.3
02:25 1022 30.18 852 25.16 5.3 41.5 46 -5.3 22.4
02:30 1022 30.18 852 25.16 5.2 41.4 50 -4.5 23.9
02:35 1022 30.18 852 25.16 5 41 47 -5.3 22.4
02:40 1022 30.18 852 25.16 5.2 41.3 45 -5.7 21.8
02:45 1022 30.18 852 25.16 5.4 41.8 45 -5.6 21.9
02:50 1022 30.18 852 25.16 5.3 41.6 46 -5.4 22.3
02:55 1022 30.18 852 25.16 5.2 41.4 48 -4.9 23.1
03:00 1022 30.18 852 25.16 5 41 47 -5.3 22.5
03:05 1022 30.18 852 25.16 5.2 41.4 46 -5.5 22
03:10 1023 30.21 852 25.16 5.4 41.8 46 -5.4 22.4
03:15 1022 30.18 852 25.16 5.5 41.8 46 -5.3 22.5
03:20 1022 30.18 852 25.16 5.4 41.8 46 -5.2 22.7
03:25 1023 30.21 852 25.16 5.4 41.6 46 -5.4 22.3
03:30 1023 30.21 852 25.16 5.5 41.8 46 -5.4 22.4
03:35 1023 30.21 852 25.16 5.4 41.8 47 -5 23
03:40 1023 30.21 852 25.16 5.3 41.5 49 -4.7 23.6
03:45 1023 30.21 852 25.16 5 41 51 -4.4 24.1
03:50 1023 30.21 852 25.16 4.8 40.6 49 -4.9 23.1
03:55 1023 30.21 852 25.16 4.8 40.6 50 -4.8 23.4
04:00 1022 30.18 852 25.16 5.2 41.4 48 -4.9 23.2
04:05 1022 30.18 852 25.16 5.2 41.4 46 -5.4 22.3
04:10 1022 30.18 852 25.16 5.3 41.5 48 -4.9 23.1
04:15 1022 30.18 852 25.16 5.3 41.5 47 -5.1 22.8
04:20 1023 30.21 852 25.16 5.3 41.5 49 -4.5 23.9
04:25 1023 30.21 852 25.16 4.6 40.4 50 -4.8 23.4
04:30 1023 30.21 852 25.16 4.5 40 49 -5.3 22.4
04:35 1023 30.21 852 25.16 4.6 40.3 51 -4.7 23.6
04:40 1023 30.21 852 25.16 4.7 40.4 49 -5.2 22.6
04:45 1023 30.21 852 25.16 4.8 40.7 47 -5.4 22.3
04:50 1023 30.21 852 25.16 5.2 41.3 46 -5.6 21.9
04:55 1023 30.21 852 25.16 5.3 41.6 48 -4.8 23.3
05:00 1023 30.21 852 25.16 5.4 41.7 48 -4.7 23.5
05:05 1023 30.21 852 25.16 4.7 40.5 50 -4.9 23.2
05:10 1023 30.21 852 25.16 4.5 40.1 48 -5.6 21.9
05:15 1023 30.21 852 25.16 5.3 41.5 45 -5.7 21.8
05:20 1023 30.21 852 25.16 5.2 41.4 48 -4.9 23.2
05:25 1023 30.21 852 25.16 5 40.9 46 -5.8 21.5
05:30 1023 30.21 852 25.16 5.3 41.6 45 -5.8 21.6
05:35 1023 30.21 852 25.16 5.4 41.8 45 -5.6 21.9
05:40 1023 30.21 852 25.16 5.4 41.7 46 -5.2 22.7
05:45 1023 30.21 852 25.16 5 41 48 -5 22.9
05:50 1023 30.21 852 25.16 4.6 40.2 49 -5.2 22.6
05:55 1023 30.21 852 25.16 4.5 40 49 -5.3 22.5
06:00 1023 30.21 852 25.16 4.4 40 48 -5.5 22.1
06:05 1023 30.21 853 25.19 4.5 40.1 50 -5 23.1
06:10 1023 30.21 853 25.19 4.1 39.4 52 -4.8 23.4
06:15 1023 30.21 853 25.19 3.8 38.9 52 -5.1 22.8
06:20 1023 30.21 853 25.19 3.9 39 50 -5.5 22.1
06:25 1023 30.21 853 25.19 4.1 39.4 49 -5.6 22
06:30 1023 30.21 853 25.19 4.1 39.4 50 -5.3 22.4
06:35 1023 30.21 853 25.19 3.9 39 52 -5 23.1
06:40 1024 30.24 853 25.19 3.4 38.2 53 -5.2 22.6
06:45 1024 30.24 853 25.19 3.5 38.2 53 -5.2 22.6
06:50 1024 30.24 853 25.19 3.6 38.5 50 -5.9 21.4
06:55 1024 30.24 853 25.19 4.1 39.4 50 -5.3 22.4
07:00 1024 30.24 853 25.19 4.1 39.3 50 -5.5 22.1
07:05 1024 30.24 853 25.19 3.9 39.1 51 -5.4 22.4
07:10 1024 30.24 853 25.19 4 39.3 49 -5.8 21.5
07:15 1024 30.24 853 25.19 4.4 40 47 -5.8 21.5
07:20 1024 30.24 853 25.19 4.8 40.6 47 -5.7 21.8
07:25 1024 30.24 853 25.19 4.7 40.5 47 -5.6 21.9
07:30 1024 30.24 853 25.19 4.6 40.3 48 -5.5 22.1
07:35 1024 30.24 853 25.19 4.4 39.9 48 -5.6 21.9
07:40 1024 30.24 853 25.19 4.3 39.8 49 -5.5 22.2
07:45 1024 30.24 853 25.19 4.2 39.5 49 -5.5 22
07:50 1024 30.24 853 25.19 4 39.2 51 -5.2 22.6
07:55 1024 30.24 853 25.19 3.6 38.5 52 -5.3 22.5
08:00 1024 30.24 853 25.19 3.2 37.8 52 -5.7 21.7
08:05 1024 30.24 853 25.19 3.3 37.9 52 -5.6 21.9
08:10 1024 30.24 853 25.19 3.4 38.1 52 -5.5 22.1
08:15 1024 30.24 853 25.19 3.3 37.9 52 -5.6 21.8
08:20 1024 30.24 853 25.19 3.4 38.1 51 -5.7 21.8
08:25 1024 30.24 853 25.19 3.4 38.1 53 -5.4 22.3
08:30 1024 30.24 853 25.19 3.2 37.8 54 -5.3 22.5
08:35 1024 30.24 853 25.19 3.2 37.8 52 -5.7 21.8
08:40 1024 30.24 853 25.19 3.5 38.4 51 -5.7 21.7
08:45 1024 30.24 853 25.19 3.8 38.9 51 -5.5 22.1
08:50 1024 30.24 853 25.19 4 39.1 49 -5.7 21.7
08:55 1024 30.24 853 25.19 4.2 39.5 49 -5.6 21.9
09:00 1024 30.24 853 25.19 4.3 39.8 48 -5.6 21.8
09:05 1024 30.24 853 25.19 4.6 40.4 47 -5.7 21.8
09:10 1024 30.24 853 25.19 4.8 40.6 47 -5.6 21.9
09:15 1024 30.24 853 25.19 4.7 40.5 47 -5.7 21.7
09:20 1024 30.24 853 25.19 4.9 40.9 45 -5.9 21.4
09:25 1024 30.24 853 25.19 5.3 41.5 45 -5.7 21.7
09:30 1024 30.24 854 25.22 5.4 41.7 46 -5.1 22.7
09:35 1025 30.27 854 25.22 4.3 39.7 53 -4.6 23.8
09:40 1025 30.27 854 25.22 3.6 38.4 53 -5.1 22.8
09:45 1024 30.24 854 25.22 3.8 38.9 51 -5.3 22.5
09:50 1024 30.24 854 25.22 4.2 39.5 50 -5.2 22.7
09:55 1024 30.24 854 25.22 4.8 40.6 48 -5.4 22.3
10:00 1024 30.24 854 25.22 5.6 42 45 -5.3 22.4
10:05 1025 30.27 854 25.22 6.1 43 44 -5.3 22.5
10:10 1025 30.27 854 25.22 6.4 43.6 43 -5.2 22.6
10:15 1024 30.24 854 25.22 6.7 44 42 -5.3 22.5
10:20 1025 30.27 854 25.22 6.7 44.1 43 -5 22.9
10:25 1025 30.27 854 25.22 7.1 44.7 42 -5 23
10:30 1025 30.27 854 25.22 7 44.6 43 -4.7 23.5
10:35 1025 30.27 854 25.22 6.5 43.7 43 -5.2 22.6
10:40 1025 30.27 854 25.22 6.9 44.4 41 -5.4 22.2
10:45 1025 30.27 854 25.22 7.3 45.2 41 -5.1 22.7
10:50 1025 30.27 854 25.22 7.3 45.1 41 -5.2 22.6
10:55 1025 30.27 854 25.22 7.2 44.9 44 -4.2 24.5
11:00 1025 30.27 855 25.25 6.8 44.3 42 -5.2 22.6
11:05 1025 30.27 855 25.25 6.7 44 44 -4.8 23.4
11:10 1025 30.27 855 25.25 6.7 44.1 43 -5.1 22.8
11:15 1025 30.27 855 25.25 6.9 44.3 41 -5.5 22.1
11:20 1025 30.27 855 25.25 7.7 45.8 39 -5.5 22.1
11:25 1025 30.27 855 25.25 8.3 47 38 -5.2 22.6
11:30 1026 30.3 855 25.25 8.7 47.7 36 -5.5 22.1
11:35 1026 30.3 855 25.25 8.9 48 36 -5.2 22.6
11:40 1026 30.3 855 25.25 8.8 47.8 35 -5.7 21.8
11:45 1026 30.3 855 25.25 9.1 48.4 35 -5.3 22.4
11:50 1026 30.3 855 25.25 9.2 48.5 34 -5.7 21.7
11:55 1026 30.3 855 25.25 9.2 48.5 36 -5.1 22.9
12:00 1026 30.3 855 25.25 9.2 48.6 35 -5.6 21.9
12:05 1026 30.3 855 25.25 9.4 49 35 -5.3 22.5
12:10 1026 30.3 855 25.25 9.3 48.8 35 -5.2 22.7
12:15 1026 30.3 855 25.25 9.7 49.5 34 -5.4 22.3
12:20 1026 30.3 855 25.25 9.5 49.1 35 -5.3 22.4
12:25 1026 30.3 855 25.25 9.6 49.3 35 -5 23
12:30 1026 30.3 855 25.25 9.7 49.4 36 -4.7 23.5
12:35 1026 30.3 855 25.25 9.7 49.4 36 -4.8 23.4
12:40 1026 30.3 855 25.25 9.7 49.4 34 -5.2 22.6
12:45 1026 30.3 855 25.25 9.6 49.2 34 -5.7 21.8
12:50 1026 30.3 855 25.25 9.7 49.5 34 -5.2 22.6
12:55 1025 30.27 855 25.25 9.6 49.3 36 -4.7 23.5
13:00 1025 30.27 855 25.25 9.6 49.3 34 -5.3 22.4
13:05 1025 30.27 855 25.25 9.7 49.4 35 -4.9 23.1
13:10 1025 30.27 855 25.25 9.6 49.3 35 -5 23.1
13:15 1025 30.27 855 25.25 9.7 49.4 36 -4.5 23.8
13:20 1025 30.27 855 25.25 9.3 48.8 37 -4.5 23.8
13:25 1025 30.27 855 25.25 8.9 48 37 -5 23
13:30 1025 30.27 855 25.25 7.9 46.3 40 -4.7 23.6
13:35 1025 30.27 854 25.22 7.3 45.2 41 -5.2 22.6
13:40 1025 30.27 854 25.22 7.3 45.2 42 -4.9 23.2
13:45 1025 30.27 854 25.22 7.7 45.8 40 -5.2 22.7
13:50 1025 30.27 854 25.22 8 46.4 39 -5.1 22.9
13:55 1025 30.27 854 25.22 8.5 47.3 38 -5.1 22.8
14:00 1025 30.27 854 25.22 8.3 47 39 -4.9 23.2
14:05 1025 30.27 854 25.22 7.8 46 41 -4.8 23.4
14:10 1025 30.27 854 25.22 7.4 45.3 40 -5.3 22.5
14:15 1025 30.27 854 25.22 7.5 45.4 41 -5.1 22.9
14:20 1025 30.27 854 25.22 7.6 45.6 40 -5.2 22.6
14:25 1025 30.27 854 25.22 7.8 46 40 -5.1 22.9
14:30 1025 30.27 854 25.22 7.7 45.9 40 -5.2 22.7
14:35 1025 30.27 854 25.22 8.2 46.8 39 -5.1 22.9
14:40 1025 30.27 854 25.22 8.8 47.8 38 -4.9 23.1
14:45 1025 30.27 854 25.22 9.1 48.4 37 -5 23
14:50 1025 30.27 854 25.22 9.7 49.4 34 -5.4 22.2
14:55 1025 30.27 854 25.22 9.9 49.7 36 -4.5 23.8
15:00 1025 30.27 854 25.22 9.9 49.8 34 -5.3 22.4
15:05 1025 30.27 854 25.22 9 48.2 37 -4.9 23.2
15:10 1025 30.27 854 25.22 8.2 46.7 39 -4.9 23.2
15:15 1025 30.27 854 25.22 8.2 46.7 38 -5.2 22.6
15:20 1025 30.27 854 25.22 8.1 46.6 39 -5.1 22.9
15:25 1025 30.27 854 25.22 8 46.4 40 -4.7 23.5
15:30 1025 30.27 854 25.22 8.4 47.2 38 -5 23
15:35 1025 30.27 854 25.22 8.4 47.1 39 -4.8 23.4
15:40 1025 30.27 854 25.22 8.4 47 39 -4.9 23.2
15:45 1025 30.27 854 25.22 8.3 47 38 -5.2 22.7
15:50 1025 30.27 854 25.22 7.9 46.3 40 -5 23.1
15:55 1025 30.27 854 25.22 7.8 46 40 -5 23
16:00 1025 30.27 854 25.22 8.1 46.6 38 -5.2 22.7
16:05 1025 30.27 854 25.22 8.3 46.9 39 -4.7 23.5
16:10 1025 30.27 854 25.22 8.1 46.6 40 -4.7 23.6
16:15 1025 30.27 854 25.22 7.8 46 39 -5.3 22.4
16:20 1025 30.27 854 25.22 7.8 46 40 -5.1 22.8
16:25 1025 30.27 854 25.22 7.6 45.8 41 -4.9 23.1
16:30 1025 30.27 854 25.22 7.7 45.8 40 -5 23
16:35 1025 30.27 854 25.22 7.8 46.1 39 -5.4 22.3
16:40 1025 30.27 854 25.22 8 46.5 38 -5.4 22.2
16:45 1025 30.27 854 25.22 8.2 46.7 39 -5 22.9
16:50 1025 30.27 854 25.22 8.3 46.9 38 -5.1 22.7
16:55 1025 30.27 854 25.22 8.4 47.1 38 -5.1 22.8
17:00 1025 30.27 854 25.22 8.6 47.5 36 -5.6 22
17:05 1025 30.27 854 25.22 8.5 47.4 36 -5.6 21.9
17:10 1025 30.27 854 25.22 8.4 47.1 37 -5.4 22.3
17:15 1025 30.27 854 25.22 8.4 47.1 37 -5.6 21.9
17:20 1025 30.27 854 25.22 8.4 47.1 38 -5 23
17:25 1025 30.27 854 25.22 8.4 47.1 38 -5.1 22.9
17:30 1025 30.27 854 25.22 8.4 47 38 -5.2 22.6
17:35 1025 30.27 854 25.22 8.4 47.1 37 -5.5 22.1
17:40 1025 30.27 854 25.22 8.3 46.9 37 -5.6 21.8
17:45 1025 30.27 854 25.22 8.3 46.9 38 -5.1 22.7
17:50 1024 30.24 854 25.22 8.3 46.9 36 -5.9 21.3
17:55 1024 30.24 854 25.22 8.2 46.8 38 -5.1 22.8
18:00 1024 30.24 854 25.22 8.2 46.7 36 -5.9 21.4
18:05 1024 30.24 854 25.22 8.3 46.9 35 -6.2 20.8
18:10 1024 30.24 854 25.22 8.4 47.2 34 -6.4 20.5
18:15 1024 30.24 854 25.22 8.4 47.1 35 -6.1 21.1
18:20 1024 30.24 854 25.22 8.4 47.2 36 -5.8 21.5
18:25 1024 30.24 854 25.22 8.3 46.9 38 -5.2 22.7
18:30 1024 30.24 854 25.22 8 46.4 40 -4.7 23.6
18:35 1025 30.27 854 25.22 8 46.4 41 -4.6 23.7
18:40 1025 30.27 854 25.22 7.9 46.3 42 -4.2 24.4
18:45 1025 30.27 854 25.22 7.8 46.1 43 -4 24.7
18:50 1025 30.27 854 25.22 7.7 45.8 45 -3.6 25.6
18:55 1025 30.27 854 25.22 7.5 45.5 44 -3.8 25.1
19:00 1025 30.27 854 25.22 7.4 45.2 46 -3.6 25.5
19:05 1025 30.27 854 25.22 7.2 45 47 -3.3 26
19:10 1025 30.27 854 25.22 6.8 44.3 48 -3.4 25.9
19:15 1025 30.27 854 25.22 6.5 43.7 48 -3.7 25.3
19:20 1025 30.27 854 25.22 6.4 43.6 49 -3.4 25.9
19:25 1025 30.27 854 25.22 6.3 43.4 51 -3.1 26.4
19:30 1025 30.27 854 25.22 6.3 43.3 49 -3.6 25.4
19:35 1025 30.27 854 25.22 6.5 43.6 50 -3.2 26.3
19:40 1025 30.27 854 25.22 6.5 43.7 50 -3.1 26.5
19:45 1025 30.27 854 25.22 6.3 43.3 49 -3.5 25.6
19:50 1025 30.27 854 25.22 6.2 43.2 49 -3.6 25.6
19:55 1025 30.27 854 25.22 6.4 43.6 47 -4.1 24.7
20:00 1025 30.27 854 25.22 6.5 43.7 48 -3.6 25.4
20:05 1025 30.27 854 25.22 6.3 43.4 50 -3.4 25.8
20:10 1025 30.27 854 25.22 6 42.8 51 -3.3 26
20:15 1025 30.27 854 25.22 5.9 42.6 51 -3.4 25.8
20:20 1025 30.27 854 25.22 5.8 42.4 52 -3.2 26.2
20:25 1025 30.27 854 25.22 5.7 42.2 53 -3.2 26.2
20:30 1025 30.27 854 25.22 5.6 42.1 53 -3.3 26.1
20:35 1025 30.27 854 25.22 5.6 42.1 52 -3.4 25.9
20:40 1025 30.27 854 25.22 5.7 42.2 51 -3.6 25.6
20:45 1025 30.27 854 25.22 5.6 42.2 54 -3 26.6
20:50 1025 30.27 854 25.22 5.6 42.1 54 -3 26.6
20:55 1025 30.27 854 25.22 5.4 41.7 54 -3.1 26.4
21:00 1025 30.27 854 25.22 5.5 42 54 -3.1 26.5
21:05 1025 30.27 854 25.22 5.5 42 54 -3 26.5
21:10 1025 30.27 854 25.22 5.4 41.6 55 -2.9 26.8
21:15 1025 30.27 854 25.22 4.9 40.9 56 -3 26.6
21:20 1025 30.27 854 25.22 4.8 40.7 57 -3 26.6
21:25 1025 30.27 854 25.22 5 41 55 -3.2 26.3
21:30 1025 30.27 854 25.22 5.1 41.1 54 -3.5 25.6
21:35 1025 30.27 854 25.22 5.3 41.5 54 -3.3 26
21:40 1025 30.27 854 25.22 5.3 41.6 53 -3.6 25.5
21:45 1025 30.27 854 25.22 5.3 41.6 55 -2.9 26.8
21:50 1025 30.27 854 25.22 5.2 41.4 54 -3.3 26.1
21:55 1025 30.27 854 25.22 5.3 41.5 53 -3.5 25.7
22:00 1025 30.27 854 25.22 5.3 41.5 53 -3.6 25.5
22:05 1025 30.27 854 25.22 5.2 41.4 51 -4 24.8
22:10 1025 30.27 854 25.22 5.3 41.5 51 -3.9 24.9
22:15 1025 30.27 854 25.22 5.3 41.6 52 -3.8 25.2
22:20 1025 30.27 854 25.22 5.2 41.3 54 -3.3 26
22:25 1025 30.27 854 25.22 5.3 41.5 48 -4.9 23.1
22:30 1025 30.27 854 25.22 5.9 42.6 47 -4.4 24
22:35 1025 30.27 854 25.22 5.9 42.6 49 -4.1 24.6
22:40 1025 30.27 854 25.22 5.5 41.9 51 -3.8 25.2
22:45 1025 30.27 854 25.22 5 41 54 -3.6 25.6
22:50 1025 30.27 854 25.22 4.7 40.4 54 -3.8 25.2
22:55 1025 30.27 854 25.22 4.8 40.6 54 -3.9 25
23:00 1025 30.27 854 25.22 4.9 40.8 53 -3.9 25
23:05 1025 30.27 854 25.22 5 41 51 -4.3 24.3
23:10 1025 30.27 854 25.22 5.4 41.6 50 -4.1 24.6
23:15 1025 30.27 854 25.22 5.6 42.1 49 -4.2 24.4
23:20 1025 30.27 854 25.22 5.6 42.1 51 -3.7 25.3
23:25 1025 30.27 854 25.22 5.3 41.5 51 -4 24.9
23:30 1025 30.27 854 25.22 5.3 41.5 52 -3.8 25.2
23:35 1025 30.27 854 25.22 5.1 41.3 51 -4.2 24.4
23:40 1025 30.27 854 25.22 5.1 41.2 51 -4.2 24.4
23:45 1025 30.27 854 25.22 5.4 41.7 50 -4.2 24.4
23:50 1025 30.27 854 25.22 5.5 41.9 50 -4 24.8
23:55 1025 30.27 854 25.22 5.4 41.7 49 -4.6 23.7
24:00 1025 30.27 854 25.22 5.7 42.2 48 -4.4 24